sensor_id;sensor_type;location;lat;lon;timestamp;P1;durP1;ratioP1;P2;durP2;ratioP2
44893;SDS011;30625;52.206;21.030;2022-11-15T00:00:17;31.65;;;17.63;;
44893;SDS011;30625;52.206;21.030;2022-11-15T00:02:43;31.20;;;15.75;;
44893;SDS011;30625;52.206;21.030;2022-11-15T00:05:09;30.52;;;15.95;;
44893;SDS011;30625;52.206;21.030;2022-11-15T00:07:34;32.10;;;17.02;;
44893;SDS011;30625;52.206;21.030;2022-11-15T00:10:00;34.08;;;16.08;;
44893;SDS011;30625;52.206;21.030;2022-11-15T00:12:27;31.35;;;17.00;;
44893;SDS011;30625;52.206;21.030;2022-11-15T00:14:53;33.88;;;17.67;;
44893;SDS011;30625;52.206;21.030;2022-11-15T00:17:19;34.13;;;17.52;;
44893;SDS011;30625;52.206;21.030;2022-11-15T00:19:45;32.88;;;17.17;;
44893;SDS011;30625;52.206;21.030;2022-11-15T00:22:11;35.17;;;17.52;;
44893;SDS011;30625;52.206;21.030;2022-11-15T00:24:36;34.28;;;18.05;;
44893;SDS011;30625;52.206;21.030;2022-11-15T00:27:02;32.92;;;17.30;;
44893;SDS011;30625;52.206;21.030;2022-11-15T00:29:28;33.40;;;17.65;;
44893;SDS011;30625;52.206;21.030;2022-11-15T00:31:53;34.92;;;18.50;;
44893;SDS011;30625;52.206;21.030;2022-11-15T00:34:19;39.40;;;18.80;;
44893;SDS011;30625;52.206;21.030;2022-11-15T00:36:45;35.85;;;17.65;;
44893;SDS011;30625;52.206;21.030;2022-11-15T00:39:10;34.88;;;17.90;;
44893;SDS011;30625;52.206;21.030;2022-11-15T00:41:36;36.53;;;18.20;;
44893;SDS011;30625;52.206;21.030;2022-11-15T00:44:02;38.25;;;19.67;;
44893;SDS011;30625;52.206;21.030;2022-11-15T00:46:28;41.05;;;21.02;;
44893;SDS011;30625;52.206;21.030;2022-11-15T00:48:53;38.53;;;19.50;;
44893;SDS011;30625;52.206;21.030;2022-11-15T00:51:19;42.38;;;20.20;;
44893;SDS011;30625;52.206;21.030;2022-11-15T00:53:45;40.15;;;20.40;;
44893;SDS011;30625;52.206;21.030;2022-11-15T00:56:11;42.05;;;21.50;;
44893;SDS011;30625;52.206;21.030;2022-11-15T00:58:36;42.30;;;21.15;;
44893;SDS011;30625;52.206;21.030;2022-11-15T01:01:09;43.83;;;21.67;;
44893;SDS011;30625;52.206;21.030;2022-11-15T01:03:37;47.42;;;23.02;;
44893;SDS011;30625;52.206;21.030;2022-11-15T01:06:04;43.83;;;21.00;;
44893;SDS011;30625;52.206;21.030;2022-11-15T01:08:30;45.47;;;21.67;;
44893;SDS011;30625;52.206;21.030;2022-11-15T01:11:00;40.65;;;20.73;;
44893;SDS011;30625;52.206;21.030;2022-11-15T01:13:31;47.50;;;22.38;;
44893;SDS011;30625;52.206;21.030;2022-11-15T01:15:58;46.45;;;23.13;;
44893;SDS011;30625;52.206;21.030;2022-11-15T01:18:25;44.50;;;23.27;;
44893;SDS011;30625;52.206;21.030;2022-11-15T01:20:50;46.40;;;22.27;;
44893;SDS011;30625;52.206;21.030;2022-11-15T01:23:16;50.10;;;22.38;;
44893;SDS011;30625;52.206;21.030;2022-11-15T01:25:42;49.60;;;23.75;;
44893;SDS011;30625;52.206;21.030;2022-11-15T01:28:07;47.13;;;22.70;;
44893;SDS011;30625;52.206;21.030;2022-11-15T01:30:33;49.97;;;23.58;;
44893;SDS011;30625;52.206;21.030;2022-11-15T01:33:00;49.30;;;23.00;;
44893;SDS011;30625;52.206;21.030;2022-11-15T01:35:26;47.72;;;24.08;;
44893;SDS011;30625;52.206;21.030;2022-11-15T01:37:52;50.38;;;23.38;;
44893;SDS011;30625;52.206;21.030;2022-11-15T01:40:17;52.95;;;24.33;;
44893;SDS011;30625;52.206;21.030;2022-11-15T01:42:46;51.97;;;24.77;;
44893;SDS011;30625;52.206;21.030;2022-11-15T01:45:13;45.08;;;21.58;;
44893;SDS011;30625;52.206;21.030;2022-11-15T01:47:40;47.63;;;22.45;;
44893;SDS011;30625;52.206;21.030;2022-11-15T01:50:14;50.10;;;22.45;;
44893;SDS011;30625;52.206;21.030;2022-11-15T01:52:42;47.13;;;22.75;;
44893;SDS011;30625;52.206;21.030;2022-11-15T01:55:13;51.30;;;23.40;;
44893;SDS011;30625;52.206;21.030;2022-11-15T01:57:45;48.92;;;22.05;;
44893;SDS011;30625;52.206;21.030;2022-11-15T02:00:14;46.10;;;22.38;;
44893;SDS011;30625;52.206;21.030;2022-11-15T02:02:40;51.08;;;23.65;;
44893;SDS011;30625;52.206;21.030;2022-11-15T02:05:06;45.88;;;21.33;;
44893;SDS011;30625;52.206;21.030;2022-11-15T02:07:34;49.53;;;22.02;;
44893;SDS011;30625;52.206;21.030;2022-11-15T02:10:08;48.75;;;21.98;;
44893;SDS011;30625;52.206;21.030;2022-11-15T02:12:39;51.17;;;22.30;;
44893;SDS011;30625;52.206;21.030;2022-11-15T02:15:06;45.78;;;22.58;;
44893;SDS011;30625;52.206;21.030;2022-11-15T02:20:14;49.67;;;22.05;;
44893;SDS011;30625;52.206;21.030;2022-11-15T02:41:30;52.38;;;24.42;;
44893;SDS011;30625;52.206;21.030;2022-11-15T02:44:00;53.78;;;23.75;;
44893;SDS011;30625;52.206;21.030;2022-11-15T02:46:48;52.90;;;24.52;;
44893;SDS011;30625;52.206;21.030;2022-11-15T02:49:36;49.38;;;22.42;;
44893;SDS011;30625;52.206;21.030;2022-11-15T02:52:04;58.38;;;25.20;;
44893;SDS011;30625;52.206;21.030;2022-11-15T02:54:30;50.00;;;23.10;;
44893;SDS011;30625;52.206;21.030;2022-11-15T02:57:07;55.85;;;26.23;;
44893;SDS011;30625;52.206;21.030;2022-11-15T03:05:49;60.60;;;24.77;;
44893;SDS011;30625;52.206;21.030;2022-11-15T03:08:31;51.50;;;23.42;;
44893;SDS011;30625;52.206;21.030;2022-11-15T03:16:24;55.42;;;25.65;;
44893;SDS011;30625;52.206;21.030;2022-11-15T03:19:13;52.90;;;24.73;;
44893;SDS011;30625;52.206;21.030;2022-11-15T03:21:48;54.40;;;24.60;;
44893;SDS011;30625;52.206;21.030;2022-11-15T03:24:16;58.53;;;26.20;;
44893;SDS011;30625;52.206;21.030;2022-11-15T03:26:45;58.55;;;26.02;;
44893;SDS011;30625;52.206;21.030;2022-11-15T03:29:13;55.03;;;24.65;;
44893;SDS011;30625;52.206;21.030;2022-11-15T03:31:44;57.92;;;25.50;;
44893;SDS011;30625;52.206;21.030;2022-11-15T03:34:37;58.22;;;25.35;;
44893;SDS011;30625;52.206;21.030;2022-11-15T03:37:20;53.55;;;22.90;;
44893;SDS011;30625;52.206;21.030;2022-11-15T03:39:50;51.72;;;24.25;;
44893;SDS011;30625;52.206;21.030;2022-11-15T03:42:30;55.97;;;23.25;;
44893;SDS011;30625;52.206;21.030;2022-11-15T03:47:53;58.35;;;27.00;;
44893;SDS011;30625;52.206;21.030;2022-11-15T03:50:32;55.03;;;24.02;;
44893;SDS011;30625;52.206;21.030;2022-11-15T03:52:59;56.95;;;25.45;;
44893;SDS011;30625;52.206;21.030;2022-11-15T03:55:25;58.17;;;26.52;;
44893;SDS011;30625;52.206;21.030;2022-11-15T03:57:53;54.47;;;23.20;;
44893;SDS011;30625;52.206;21.030;2022-11-15T04:00:22;58.63;;;26.05;;
44893;SDS011;30625;52.206;21.030;2022-11-15T04:02:48;58.78;;;26.63;;
44893;SDS011;30625;52.206;21.030;2022-11-15T04:05:14;57.72;;;26.00;;
44893;SDS011;30625;52.206;21.030;2022-11-15T04:07:39;63.90;;;26.60;;
44893;SDS011;30625;52.206;21.030;2022-11-15T04:10:05;54.83;;;23.50;;
44893;SDS011;30625;52.206;21.030;2022-11-15T04:15:07;61.65;;;26.73;;
44893;SDS011;30625;52.206;21.030;2022-11-15T04:17:38;60.95;;;27.23;;
44893;SDS011;30625;52.206;21.030;2022-11-15T04:20:27;63.40;;;26.25;;
44893;SDS011;30625;52.206;21.030;2022-11-15T04:26:02;56.80;;;24.08;;
44893;SDS011;30625;52.206;21.030;2022-11-15T04:28:35;54.40;;;23.83;;
44893;SDS011;30625;52.206;21.030;2022-11-15T04:31:21;55.33;;;23.75;;
44893;SDS011;30625;52.206;21.030;2022-11-15T04:33:47;56.33;;;24.13;;
44893;SDS011;30625;52.206;21.030;2022-11-15T04:36:13;57.63;;;24.40;;
44893;SDS011;30625;52.206;21.030;2022-11-15T04:38:57;58.40;;;24.25;;
44893;SDS011;30625;52.206;21.030;2022-11-15T04:41:23;60.35;;;25.33;;
44893;SDS011;30625;52.206;21.030;2022-11-15T04:43:48;64.20;;;26.15;;
44893;SDS011;30625;52.206;21.030;2022-11-15T04:46:14;57.60;;;24.67;;
44893;SDS011;30625;52.206;21.030;2022-11-15T04:48:40;66.28;;;24.60;;
44893;SDS011;30625;52.206;21.030;2022-11-15T04:51:06;63.33;;;25.42;;
44893;SDS011;30625;52.206;21.030;2022-11-15T04:53:31;60.70;;;25.48;;
44893;SDS011;30625;52.206;21.030;2022-11-15T04:55:57;62.35;;;24.92;;
44893;SDS011;30625;52.206;21.030;2022-11-15T04:58:23;62.08;;;25.40;;
44893;SDS011;30625;52.206;21.030;2022-11-15T05:00:49;61.47;;;25.15;;
44893;SDS011;30625;52.206;21.030;2022-11-15T05:03:14;61.75;;;24.90;;
44893;SDS011;30625;52.206;21.030;2022-11-15T05:05:59;62.35;;;25.30;;
44893;SDS011;30625;52.206;21.030;2022-11-15T05:08:25;55.25;;;23.90;;
44893;SDS011;30625;52.206;21.030;2022-11-15T05:10:50;76.65;;;28.50;;
44893;SDS011;30625;52.206;21.030;2022-11-15T05:13:16;59.67;;;24.98;;
44893;SDS011;30625;52.206;21.030;2022-11-15T05:15:42;69.10;;;25.02;;
44893;SDS011;30625;52.206;21.030;2022-11-15T05:18:08;59.38;;;24.20;;
44893;SDS011;30625;52.206;21.030;2022-11-15T05:20:34;64.00;;;24.55;;
44893;SDS011;30625;52.206;21.030;2022-11-15T05:23:00;61.95;;;25.58;;
44893;SDS011;30625;52.206;21.030;2022-11-15T05:25:26;65.63;;;25.52;;
44893;SDS011;30625;52.206;21.030;2022-11-15T05:27:52;62.78;;;24.95;;
44893;SDS011;30625;52.206;21.030;2022-11-15T05:30:18;64.45;;;26.52;;
44893;SDS011;30625;52.206;21.030;2022-11-15T05:32:44;64.78;;;25.77;;
44893;SDS011;30625;52.206;21.030;2022-11-15T05:35:12;60.47;;;24.83;;
44893;SDS011;30625;52.206;21.030;2022-11-15T05:37:56;70.72;;;26.80;;
44893;SDS011;30625;52.206;21.030;2022-11-15T05:40:22;70.32;;;25.05;;
44893;SDS011;30625;52.206;21.030;2022-11-15T05:42:49;68.53;;;25.35;;
44893;SDS011;30625;52.206;21.030;2022-11-15T05:47:41;68.43;;;25.77;;
44893;SDS011;30625;52.206;21.030;2022-11-15T05:50:07;67.35;;;25.13;;
44893;SDS011;30625;52.206;21.030;2022-11-15T05:52:37;61.38;;;24.20;;
44893;SDS011;30625;52.206;21.030;2022-11-15T05:55:03;75.35;;;26.25;;
44893;SDS011;30625;52.206;21.030;2022-11-15T05:57:33;71.32;;;25.52;;
44893;SDS011;30625;52.206;21.030;2022-11-15T05:59:59;70.05;;;25.45;;
44893;SDS011;30625;52.206;21.030;2022-11-15T06:02:28;73.20;;;27.25;;
44893;SDS011;30625;52.206;21.030;2022-11-15T06:04:54;64.80;;;24.63;;
44893;SDS011;30625;52.206;21.030;2022-11-15T06:07:19;70.95;;;26.20;;
44893;SDS011;30625;52.206;21.030;2022-11-15T06:09:45;63.25;;;24.50;;
44893;SDS011;30625;52.206;21.030;2022-11-15T06:12:11;75.03;;;27.13;;
44893;SDS011;30625;52.206;21.030;2022-11-15T06:14:37;69.38;;;24.30;;
44893;SDS011;30625;52.206;21.030;2022-11-15T06:17:02;74.53;;;26.65;;
44893;SDS011;30625;52.206;21.030;2022-11-15T06:19:28;73.93;;;26.25;;
44893;SDS011;30625;52.206;21.030;2022-11-15T06:21:58;76.35;;;27.02;;
44893;SDS011;30625;52.206;21.030;2022-11-15T06:24:24;73.88;;;26.20;;
44893;SDS011;30625;52.206;21.030;2022-11-15T06:26:50;75.28;;;26.63;;
44893;SDS011;30625;52.206;21.030;2022-11-15T06:29:16;70.97;;;25.45;;
44893;SDS011;30625;52.206;21.030;2022-11-15T06:31:42;71.68;;;24.98;;
44893;SDS011;30625;52.206;21.030;2022-11-15T06:34:07;70.10;;;25.25;;
44893;SDS011;30625;52.206;21.030;2022-11-15T06:36:36;74.43;;;25.23;;
44893;SDS011;30625;52.206;21.030;2022-11-15T06:39:03;69.35;;;24.38;;
44893;SDS011;30625;52.206;21.030;2022-11-15T06:41:29;64.00;;;23.77;;
44893;SDS011;30625;52.206;21.030;2022-11-15T06:43:56;66.28;;;24.73;;
44893;SDS011;30625;52.206;21.030;2022-11-15T06:46:22;68.68;;;26.02;;
44893;SDS011;30625;52.206;21.030;2022-11-15T06:48:50;69.00;;;23.67;;
44893;SDS011;30625;52.206;21.030;2022-11-15T06:51:16;65.90;;;24.90;;
44893;SDS011;30625;52.206;21.030;2022-11-15T06:53:42;70.80;;;25.30;;
44893;SDS011;30625;52.206;21.030;2022-11-15T06:56:07;73.40;;;24.48;;
44893;SDS011;30625;52.206;21.030;2022-11-15T07:01:04;61.05;;;22.52;;
44893;SDS011;30625;52.206;21.030;2022-11-15T07:03:34;51.72;;;21.20;;
44893;SDS011;30625;52.206;21.030;2022-11-15T07:06:00;49.30;;;20.67;;
44893;SDS011;30625;52.206;21.030;2022-11-15T07:08:27;57.67;;;21.80;;
44893;SDS011;30625;52.206;21.030;2022-11-15T07:10:54;59.90;;;21.43;;
44893;SDS011;30625;52.206;21.030;2022-11-15T07:13:24;56.15;;;22.95;;
44893;SDS011;30625;52.206;21.030;2022-11-15T07:15:51;60.13;;;22.27;;
44893;SDS011;30625;52.206;21.030;2022-11-15T07:18:16;62.17;;;23.25;;
44893;SDS011;30625;52.206;21.030;2022-11-15T07:20:42;54.72;;;22.13;;
44893;SDS011;30625;52.206;21.030;2022-11-15T07:23:08;52.60;;;20.58;;
44893;SDS011;30625;52.206;21.030;2022-11-15T07:25:37;61.55;;;21.65;;
44893;SDS011;30625;52.206;21.030;2022-11-15T07:28:03;49.25;;;20.40;;
44893;SDS011;30625;52.206;21.030;2022-11-15T07:30:29;53.70;;;19.80;;
44893;SDS011;30625;52.206;21.030;2022-11-15T07:32:59;49.65;;;21.25;;
44893;SDS011;30625;52.206;21.030;2022-11-15T07:35:27;46.53;;;18.77;;
44893;SDS011;30625;52.206;21.030;2022-11-15T07:37:54;49.60;;;19.27;;
44893;SDS011;30625;52.206;21.030;2022-11-15T07:40:25;42.35;;;19.30;;
44893;SDS011;30625;52.206;21.030;2022-11-15T07:42:52;43.55;;;18.65;;
44893;SDS011;30625;52.206;21.030;2022-11-15T07:45:18;41.40;;;18.50;;
44893;SDS011;30625;52.206;21.030;2022-11-15T07:47:45;45.13;;;19.10;;
44893;SDS011;30625;52.206;21.030;2022-11-15T07:50:12;41.97;;;17.70;;
44893;SDS011;30625;52.206;21.030;2022-11-15T07:52:38;35.38;;;16.75;;
44893;SDS011;30625;52.206;21.030;2022-11-15T07:55:04;38.47;;;18.45;;
44893;SDS011;30625;52.206;21.030;2022-11-15T07:57:30;47.38;;;18.60;;
44893;SDS011;30625;52.206;21.030;2022-11-15T07:59:56;39.17;;;17.45;;
44893;SDS011;30625;52.206;21.030;2022-11-15T08:02:21;45.38;;;17.95;;
44893;SDS011;30625;52.206;21.030;2022-11-15T08:04:47;39.55;;;16.85;;
44893;SDS011;30625;52.206;21.030;2022-11-15T08:07:13;38.05;;;17.55;;
44893;SDS011;30625;52.206;21.030;2022-11-15T08:09:39;41.85;;;18.08;;
44893;SDS011;30625;52.206;21.030;2022-11-15T08:12:04;41.33;;;17.42;;
44893;SDS011;30625;52.206;21.030;2022-11-15T08:14:30;37.25;;;16.92;;
44893;SDS011;30625;52.206;21.030;2022-11-15T08:16:56;39.72;;;16.77;;
44893;SDS011;30625;52.206;21.030;2022-11-15T08:19:22;36.75;;;16.73;;
44893;SDS011;30625;52.206;21.030;2022-11-15T08:21:48;38.13;;;16.83;;
44893;SDS011;30625;52.206;21.030;2022-11-15T08:24:14;40.65;;;18.17;;
44893;SDS011;30625;52.206;21.030;2022-11-15T08:26:39;43.63;;;18.48;;
44893;SDS011;30625;52.206;21.030;2022-11-15T08:29:05;39.47;;;16.77;;
44893;SDS011;30625;52.206;21.030;2022-11-15T08:31:33;47.38;;;19.10;;
44893;SDS011;30625;52.206;21.030;2022-11-15T08:34:01;48.28;;;20.85;;
44893;SDS011;30625;52.206;21.030;2022-11-15T08:36:28;46.35;;;19.35;;
44893;SDS011;30625;52.206;21.030;2022-11-15T08:41:24;43.83;;;17.65;;
44893;SDS011;30625;52.206;21.030;2022-11-15T08:43:58;40.97;;;18.30;;
44893;SDS011;30625;52.206;21.030;2022-11-15T08:46:24;46.10;;;18.15;;
44893;SDS011;30625;52.206;21.030;2022-11-15T08:48:50;40.95;;;17.92;;
44893;SDS011;30625;52.206;21.030;2022-11-15T08:51:16;39.00;;;18.00;;
44893;SDS011;30625;52.206;21.030;2022-11-15T08:53:42;37.15;;;16.48;;
44893;SDS011;30625;52.206;21.030;2022-11-15T08:56:08;41.55;;;18.45;;
44893;SDS011;30625;52.206;21.030;2022-11-15T08:58:35;37.60;;;18.25;;
44893;SDS011;30625;52.206;21.030;2022-11-15T09:01:02;42.00;;;18.40;;
44893;SDS011;30625;52.206;21.030;2022-11-15T09:03:28;42.90;;;17.08;;
44893;SDS011;30625;52.206;21.030;2022-11-15T09:05:58;38.30;;;16.88;;
44893;SDS011;30625;52.206;21.030;2022-11-15T09:08:26;37.78;;;18.30;;
44893;SDS011;30625;52.206;21.030;2022-11-15T09:10:55;41.45;;;18.60;;
44893;SDS011;30625;52.206;21.030;2022-11-15T09:13:21;42.70;;;17.90;;
44893;SDS011;30625;52.206;21.030;2022-11-15T09:15:47;38.30;;;17.33;;
44893;SDS011;30625;52.206;21.030;2022-11-15T09:18:13;44.65;;;17.95;;
44893;SDS011;30625;52.206;21.030;2022-11-15T09:20:38;46.85;;;20.10;;
44893;SDS011;30625;52.206;21.030;2022-11-15T09:23:04;53.22;;;18.50;;
44893;SDS011;30625;52.206;21.030;2022-11-15T09:25:30;41.03;;;18.10;;
44893;SDS011;30625;52.206;21.030;2022-11-15T09:27:57;40.90;;;18.58;;
44893;SDS011;30625;52.206;21.030;2022-11-15T09:30:23;42.10;;;17.48;;
44893;SDS011;30625;52.206;21.030;2022-11-15T09:32:50;45.78;;;18.80;;
44893;SDS011;30625;52.206;21.030;2022-11-15T09:35:16;42.10;;;19.05;;
44893;SDS011;30625;52.206;21.030;2022-11-15T09:37:41;41.13;;;19.10;;
44893;SDS011;30625;52.206;21.030;2022-11-15T09:40:14;45.45;;;20.80;;
44893;SDS011;30625;52.206;21.030;2022-11-15T09:51:39;48.55;;;20.10;;
44893;SDS011;30625;52.206;21.030;2022-11-15T09:57:13;38.22;;;18.98;;
44893;SDS011;30625;52.206;21.030;2022-11-15T09:59:54;47.53;;;20.25;;
44893;SDS011;30625;52.206;21.030;2022-11-15T10:02:46;39.07;;;18.57;;
44893;SDS011;30625;52.206;21.030;2022-11-15T10:05:27;42.15;;;20.10;;
44893;SDS011;30625;52.206;21.030;2022-11-15T10:10:41;46.25;;;18.42;;
44893;SDS011;30625;52.206;21.030;2022-11-15T10:13:13;50.47;;;20.60;;
44893;SDS011;30625;52.206;21.030;2022-11-15T10:15:50;46.05;;;20.33;;
44893;SDS011;30625;52.206;21.030;2022-11-15T10:21:19;47.50;;;20.63;;
44893;SDS011;30625;52.206;21.030;2022-11-15T10:23:47;47.55;;;21.65;;
44893;SDS011;30625;52.206;21.030;2022-11-15T10:28:41;43.63;;;20.10;;
44893;SDS011;30625;52.206;21.030;2022-11-15T10:31:21;43.83;;;20.05;;
44893;SDS011;30625;52.206;21.030;2022-11-15T10:33:58;42.45;;;22.73;;
44893;SDS011;30625;52.206;21.030;2022-11-15T10:36:36;44.92;;;21.55;;
44893;SDS011;30625;52.206;21.030;2022-11-15T10:39:02;42.25;;;20.25;;
44893;SDS011;30625;52.206;21.030;2022-11-15T10:41:29;47.42;;;22.27;;
44893;SDS011;30625;52.206;21.030;2022-11-15T10:44:17;44.25;;;22.15;;
44893;SDS011;30625;52.206;21.030;2022-11-15T10:49:21;48.80;;;22.83;;
44893;SDS011;30625;52.206;21.030;2022-11-15T10:51:48;46.30;;;21.70;;
44893;SDS011;30625;52.206;21.030;2022-11-15T10:54:36;40.90;;;20.25;;
44893;SDS011;30625;52.206;21.030;2022-11-15T10:57:07;49.13;;;21.95;;
44893;SDS011;30625;52.206;21.030;2022-11-15T10:59:38;46.53;;;20.73;;
44893;SDS011;30625;52.206;21.030;2022-11-15T11:04:58;41.67;;;19.30;;
44893;SDS011;30625;52.206;21.030;2022-11-15T11:07:30;41.03;;;19.90;;
44893;SDS011;30625;52.206;21.030;2022-11-15T11:10:05;41.65;;;20.80;;
44893;SDS011;30625;52.206;21.030;2022-11-15T11:12:43;42.58;;;21.05;;
44893;SDS011;30625;52.206;21.030;2022-11-15T11:15:10;42.92;;;21.50;;
44893;SDS011;30625;52.206;21.030;2022-11-15T11:20:36;46.60;;;21.85;;
44893;SDS011;30625;52.206;21.030;2022-11-15T11:23:22;52.00;;;23.08;;
44893;SDS011;30625;52.206;21.030;2022-11-15T11:40:20;46.35;;;23.35;;
44893;SDS011;30625;52.206;21.030;2022-11-15T11:43:00;45.25;;;21.15;;
44893;SDS011;30625;52.206;21.030;2022-11-15T11:48:28;44.28;;;20.95;;
44893;SDS011;30625;52.206;21.030;2022-11-15T11:51:40;49.85;;;23.20;;
44893;SDS011;30625;52.206;21.030;2022-11-15T11:54:14;51.08;;;23.08;;
44893;SDS011;30625;52.206;21.030;2022-11-15T11:57:04;50.25;;;24.33;;
44893;SDS011;30625;52.206;21.030;2022-11-15T11:59:41;51.70;;;24.05;;
44893;SDS011;30625;52.206;21.030;2022-11-15T12:02:34;51.78;;;24.73;;
44893;SDS011;30625;52.206;21.030;2022-11-15T12:05:08;55.25;;;22.90;;
44893;SDS011;30625;52.206;21.030;2022-11-15T12:07:38;45.53;;;22.83;;
44893;SDS011;30625;52.206;21.030;2022-11-15T12:10:25;49.45;;;24.38;;
44893;SDS011;30625;52.206;21.030;2022-11-15T12:13:00;46.60;;;22.13;;
44893;SDS011;30625;52.206;21.030;2022-11-15T12:15:31;48.78;;;22.85;;
44893;SDS011;30625;52.206;21.030;2022-11-15T12:18:07;49.00;;;22.33;;
44893;SDS011;30625;52.206;21.030;2022-11-15T12:20:39;53.58;;;25.55;;
44893;SDS011;30625;52.206;21.030;2022-11-15T12:23:50;51.00;;;23.40;;
44893;SDS011;30625;52.206;21.030;2022-11-15T12:26:02;45.78;;;23.65;;
44893;SDS011;30625;52.206;21.030;2022-11-15T12:28:40;56.92;;;24.83;;
44893;SDS011;30625;52.206;21.030;2022-11-15T12:31:11;48.22;;;25.30;;
44893;SDS011;30625;52.206;21.030;2022-11-15T12:33:44;52.25;;;24.80;;
44893;SDS011;30625;52.206;21.030;2022-11-15T12:38:52;53.33;;;25.65;;
44893;SDS011;30625;52.206;21.030;2022-11-15T12:41:35;54.38;;;24.63;;
44893;SDS011;30625;52.206;21.030;2022-11-15T12:44:03;46.03;;;23.70;;
44893;SDS011;30625;52.206;21.030;2022-11-15T12:49:10;49.03;;;24.27;;
44893;SDS011;30625;52.206;21.030;2022-11-15T12:52:03;48.25;;;23.92;;
44893;SDS011;30625;52.206;21.030;2022-11-15T13:02:24;51.38;;;24.40;;
44893;SDS011;30625;52.206;21.030;2022-11-15T13:13:01;52.63;;;24.20;;
44893;SDS011;30625;52.206;21.030;2022-11-15T13:18:26;54.80;;;25.75;;
44893;SDS011;30625;52.206;21.030;2022-11-15T13:20:58;50.63;;;23.23;;
44893;SDS011;30625;52.206;21.030;2022-11-15T13:23:24;55.08;;;24.67;;
44893;SDS011;30625;52.206;21.030;2022-11-15T13:30:59;56.47;;;26.23;;
44893;SDS011;30625;52.206;21.030;2022-11-15T13:33:34;59.97;;;25.77;;
44893;SDS011;30625;52.206;21.030;2022-11-15T13:36:02;62.53;;;28.73;;
44893;SDS011;30625;52.206;21.030;2022-11-15T13:38:33;55.92;;;27.83;;
44893;SDS011;30625;52.206;21.030;2022-11-15T13:41:10;59.70;;;27.63;;
44893;SDS011;30625;52.206;21.030;2022-11-15T13:43:42;63.65;;;30.45;;
44893;SDS011;30625;52.206;21.030;2022-11-15T13:46:18;59.47;;;27.95;;
44893;SDS011;30625;52.206;21.030;2022-11-15T13:48:58;53.80;;;25.92;;
44893;SDS011;30625;52.206;21.030;2022-11-15T13:51:37;60.95;;;27.77;;
44893;SDS011;30625;52.206;21.030;2022-11-15T13:54:08;60.63;;;27.80;;
44893;SDS011;30625;52.206;21.030;2022-11-15T13:56:56;56.80;;;27.00;;
44893;SDS011;30625;52.206;21.030;2022-11-15T13:59:31;62.20;;;26.70;;
44893;SDS011;30625;52.206;21.030;2022-11-15T14:02:10;61.17;;;28.23;;
44893;SDS011;30625;52.206;21.030;2022-11-15T14:04:42;55.53;;;27.17;;
44893;SDS011;30625;52.206;21.030;2022-11-15T14:07:17;59.95;;;27.33;;
44893;SDS011;30625;52.206;21.030;2022-11-15T14:09:45;62.08;;;28.08;;
44893;SDS011;30625;52.206;21.030;2022-11-15T14:19:55;63.05;;;27.30;;
44893;SDS011;30625;52.206;21.030;2022-11-15T14:22:23;58.70;;;27.42;;
44893;SDS011;30625;52.206;21.030;2022-11-15T14:27:38;57.55;;;25.77;;
44893;SDS011;30625;52.206;21.030;2022-11-15T14:30:05;66.90;;;28.10;;
44893;SDS011;30625;52.206;21.030;2022-11-15T14:32:45;66.55;;;28.40;;
44893;SDS011;30625;52.206;21.030;2022-11-15T14:35:14;56.80;;;26.55;;
44893;SDS011;30625;52.206;21.030;2022-11-15T14:37:42;57.70;;;26.90;;
44893;SDS011;30625;52.206;21.030;2022-11-15T14:40:08;61.58;;;27.55;;
44893;SDS011;30625;52.206;21.030;2022-11-15T14:42:39;56.55;;;26.58;;
44893;SDS011;30625;52.206;21.030;2022-11-15T14:45:09;58.13;;;26.38;;
44893;SDS011;30625;52.206;21.030;2022-11-15T14:47:38;59.22;;;26.67;;
44893;SDS011;30625;52.206;21.030;2022-11-15T14:50:04;65.03;;;27.83;;
44893;SDS011;30625;52.206;21.030;2022-11-15T14:52:31;62.53;;;26.92;;
44893;SDS011;30625;52.206;21.030;2022-11-15T14:55:01;78.07;;;29.38;;
44893;SDS011;30625;52.206;21.030;2022-11-15T14:57:28;67.72;;;29.25;;
44893;SDS011;30625;52.206;21.030;2022-11-15T14:59:54;65.60;;;29.02;;
44893;SDS011;30625;52.206;21.030;2022-11-15T15:02:21;60.53;;;28.05;;
44893;SDS011;30625;52.206;21.030;2022-11-15T15:04:49;65.72;;;28.45;;
44893;SDS011;30625;52.206;21.030;2022-11-15T15:07:18;64.63;;;28.80;;
44893;SDS011;30625;52.206;21.030;2022-11-15T15:09:45;64.95;;;28.40;;
44893;SDS011;30625;52.206;21.030;2022-11-15T15:12:13;70.70;;;30.38;;
44893;SDS011;30625;52.206;21.030;2022-11-15T15:14:39;69.97;;;29.40;;
44893;SDS011;30625;52.206;21.030;2022-11-15T15:17:05;64.38;;;30.42;;
44893;SDS011;30625;52.206;21.030;2022-11-15T15:19:31;68.05;;;31.52;;
44893;SDS011;30625;52.206;21.030;2022-11-15T15:21:57;72.43;;;30.50;;
44893;SDS011;30625;52.206;21.030;2022-11-15T15:24:22;71.68;;;31.90;;
44893;SDS011;30625;52.206;21.030;2022-11-15T15:26:48;74.30;;;31.25;;
44893;SDS011;30625;52.206;21.030;2022-11-15T15:29:14;66.90;;;29.35;;
44893;SDS011;30625;52.206;21.030;2022-11-15T15:31:40;80.43;;;31.35;;
44893;SDS011;30625;52.206;21.030;2022-11-15T15:34:06;72.70;;;29.75;;
44893;SDS011;30625;52.206;21.030;2022-11-15T15:36:32;82.07;;;32.50;;
44893;SDS011;30625;52.206;21.030;2022-11-15T15:38:57;80.47;;;29.23;;
44893;SDS011;30625;52.206;21.030;2022-11-15T15:41:23;77.55;;;31.52;;
44893;SDS011;30625;52.206;21.030;2022-11-15T15:43:49;74.55;;;30.70;;
44893;SDS011;30625;52.206;21.030;2022-11-15T15:46:15;74.32;;;30.15;;
44893;SDS011;30625;52.206;21.030;2022-11-15T15:48:42;64.53;;;27.52;;
44893;SDS011;30625;52.206;21.030;2022-11-15T15:51:08;69.68;;;28.75;;
44893;SDS011;30625;52.206;21.030;2022-11-15T15:56:00;67.55;;;27.90;;
44893;SDS011;30625;52.206;21.030;2022-11-15T15:58:26;65.50;;;26.98;;
44893;SDS011;30625;52.206;21.030;2022-11-15T16:00:52;65.82;;;28.38;;
44893;SDS011;30625;52.206;21.030;2022-11-15T16:03:17;77.70;;;29.42;;
44893;SDS011;30625;52.206;21.030;2022-11-15T16:05:43;66.60;;;28.80;;
44893;SDS011;30625;52.206;21.030;2022-11-15T16:08:16;70.00;;;28.75;;
44893;SDS011;30625;52.206;21.030;2022-11-15T16:10:47;71.32;;;30.05;;
44893;SDS011;30625;52.206;21.030;2022-11-15T16:13:13;59.78;;;25.95;;
44893;SDS011;30625;52.206;21.030;2022-11-15T16:15:39;62.13;;;27.88;;
44893;SDS011;30625;52.206;21.030;2022-11-15T16:18:05;62.50;;;29.25;;
44893;SDS011;30625;52.206;21.030;2022-11-15T16:23:08;65.35;;;27.27;;
44893;SDS011;30625;52.206;21.030;2022-11-15T16:28:49;63.67;;;26.85;;
44893;SDS011;30625;52.206;21.030;2022-11-15T16:31:04;68.22;;;26.92;;
44893;SDS011;30625;52.206;21.030;2022-11-15T16:33:30;69.15;;;28.30;;
44893;SDS011;30625;52.206;21.030;2022-11-15T16:35:58;68.28;;;28.08;;
44893;SDS011;30625;52.206;21.030;2022-11-15T16:38:24;80.78;;;29.80;;
44893;SDS011;30625;52.206;21.030;2022-11-15T16:40:50;67.25;;;27.83;;
44893;SDS011;30625;52.206;21.030;2022-11-15T16:43:16;77.43;;;29.20;;